Time;durP1;ratioP1;P1;durP2;ratioP2;P2;SDS_P1;SDS_P2;PMS_P1;PMS_P2;Temp;Humidity;BMP_temperature;BMP_pressure;BME280_temperature;BME280_humidity;BME280_pressure;Samples;Min_cycle;Max_cycle;Signal;HPM_P1;HPM_P2
2021/05/29 00:01:39;;;;;;;;;;;28.30;92.10;;;;;;5104815;28;19936;-43
2021/05/29 00:04:05;;;;;;;;;;;28.30;92.10;;;;;;5104790;28;19912;-42
2021/05/29 00:06:32;;;;;;;;;;;28.30;91.90;;;;;;5104794;28;19904;-45
2021/05/29 00:08:58;;;;;;;;;;;28.30;91.90;;;;;;5104879;28;19919;-44
2021/05/29 00:11:24;;;;;;;;;;;28.30;92.00;;;;;;5104781;28;19904;-42
2021/05/29 00:13:50;;;;;;;;;;;28.30;91.90;;;;;;5104645;28;19924;-50
2021/05/29 00:16:17;;;;;;;;;;;28.30;91.90;;;;;;5104885;28;19904;-44
2021/05/29 00:18:43;;;;;;;;;;;28.20;92.00;;;;;;5104691;28;19911;-45
2021/05/29 00:21:09;;;;;;;;;;;28.20;92.00;;;;;;5104679;28;19975;-47
2021/05/29 00:23:35;;;;;;;;;;;28.20;92.10;;;;;;5104486;28;19911;-44
2021/05/29 00:26:02;;;;;;;;;;;28.20;92.10;;;;;;5104548;28;19915;-47
2021/05/29 00:28:28;;;;;;;;;;;28.20;92.10;;;;;;5104417;28;20192;-44
2021/05/29 00:30:54;;;;;;;;;;;28.20;92.10;;;;;;5104809;28;19912;-45
2021/05/29 00:33:20;;;;;;;;;;;28.20;92.20;;;;;;5104558;28;19904;-52
2021/05/29 00:35:46;;;;;;;;;;;28.20;92.20;;;;;;5103291;28;20192;-51
2021/05/29 00:38:12;;;;;;;;;;;28.20;92.30;;;;;;5104552;28;20019;-46
2021/05/29 00:40:41;;;;;;;;;;;28.10;92.30;;;;;;5103496;28;19940;-49
2021/05/29 00:43:07;;;;;;;;;;;28.10;92.40;;;;;;5104518;28;19908;-48
2021/05/29 00:45:39;;;;;;;;;;;28.10;92.40;;;;;;5104291;28;19932;-46
2021/05/29 00:48:05;;;;;;;;;;;28.10;92.40;;;;;;5104363;28;19946;-40
2021/05/29 00:50:33;;;;;;;;;;;28.10;92.50;;;;;;5104378;28;20103;-50
2021/05/29 00:53:00;;;;;;;;;;;28.10;92.50;;;;;;5103449;28;19908;-42
2021/05/29 00:55:27;;;;;;;;;;;28.10;92.60;;;;;;5104729;28;19916;-46
2021/05/29 00:57:56;;;;;;;;;;;28.10;92.70;;;;;;5104289;28;19904;-48
2021/05/29 01:00:23;;;;;;;;;;;28.10;92.70;;;;;;5104716;28;20184;-51
2021/05/29 01:02:50;;;;;;;;;;;28.10;92.80;;;;;;5104192;28;19904;-57
2021/05/29 01:05:19;;;;;;;;;;;28.10;92.80;;;;;;5104028;28;19916;-53
2021/05/29 01:07:48;;;;;;;;;;;28.10;92.80;;;;;;5104337;28;19905;-51
2021/05/29 01:10:15;;;;;;;;;;;28.10;92.90;;;;;;5104717;28;20138;-53
2021/05/29 01:12:41;;;;;;;;;;;28.10;93.10;;;;;;5104061;28;19908;-54
2021/05/29 01:15:08;;;;;;;;;;;28.10;92.90;;;;;;5104727;28;19912;-57
2021/05/29 01:17:35;;;;;;;;;;;28.00;92.90;;;;;;5103854;28;20189;-52
2021/05/29 01:20:02;;;;;;;;;;;28.00;93.00;;;;;;5103847;28;19918;-52
2021/05/29 01:22:35;;;;;;;;;;;28.00;93.00;;;;;;5103890;28;19911;-53
2021/05/29 01:25:04;;;;;;;;;;;28.00;93.00;;;;;;5104225;28;19951;-51
2021/05/29 01:27:31;;;;;;;;;;;28.00;93.00;;;;;;5104036;28;19904;-51
2021/05/29 01:29:59;;;;;;;;;;;28.00;93.10;;;;;;5104170;28;19960;-51
2021/05/29 01:32:32;;;;;;;;;;;28.00;93.10;;;;;;5102953;28;19911;-54
2021/05/29 01:35:03;;;;;;;;;;;28.00;93.10;;;;;;5104038;28;19919;-43
2021/05/29 01:37:30;;;;;;;;;;;27.90;93.20;;;;;;5103862;28;19967;-42
2021/05/29 01:39:56;;;;;;;;;;;27.90;93.10;;;;;;5104505;28;19912;-44
2021/05/29 01:42:22;;;;;;;;;;;27.90;93.10;;;;;;5105466;28;19904;-41
2021/05/29 01:44:49;;;;;;;;;;;27.90;93.20;;;;;;5107580;28;19978;-46
2021/05/29 01:47:15;;;;;;;;;;;27.90;93.30;;;;;;5106668;28;19983;-51
2021/05/29 01:49:42;;;;;;;;;;;27.90;93.30;;;;;;5107218;28;19912;-44
2021/05/29 01:52:08;;;;;;;;;;;27.90;93.30;;;;;;5106516;28;20081;-41
2021/05/29 01:54:34;;;;;;;;;;;27.90;93.30;;;;;;5106246;28;20192;-46
2021/05/29 01:57:01;;;;;;;;;;;27.90;93.30;;;;;;5105468;28;19904;-42
2021/05/29 01:59:27;;;;;;;;;;;27.80;93.20;;;;;;5107441;28;19979;-43
2021/05/29 02:01:58;;;;;;;;;;;27.80;93.40;;;;;;5107187;28;20188;-45
2021/05/29 02:04:25;;;;;;;;;;;27.80;93.30;;;;;;5107164;28;19966;-44
2021/05/29 02:06:51;;;;;;;;;;;27.80;93.60;;;;;;5107140;28;19905;-43
2021/05/29 02:09:18;;;;;;;;;;;27.80;93.40;;;;;;5106150;28;19916;-45
2021/05/29 02:11:44;;;;;;;;;;;27.80;93.30;;;;;;5105710;28;20127;-44
2021/05/29 02:14:10;;;;;;;;;;;27.80;93.30;;;;;;5105880;28;19912;-45
2021/05/29 02:16:37;;;;;;;;;;;27.70;93.30;;;;;;5106794;28;20101;-51
2021/05/29 02:19:03;;;;;;;;;;;27.70;93.30;;;;;;5107033;28;19979;-44
2021/05/29 02:21:30;;;;;;;;;;;27.70;93.30;;;;;;5107325;28;19912;-44
2021/05/29 02:23:56;;;;;;;;;;;27.70;93.40;;;;;;5106613;28;19973;-43
2021/05/29 02:26:24;;;;;;;;;;;27.70;93.40;;;;;;5106754;28;19949;-51
2021/05/29 02:28:54;;;;;;;;;;;27.60;93.40;;;;;;5106730;28;20143;-51
2021/05/29 02:31:21;;;;;;;;;;;27.70;93.40;;;;;;5106726;28;20289;-49
2021/05/29 02:33:47;;;;;;;;;;;27.60;93.40;;;;;;5105449;28;19908;-42
2021/05/29 02:36:14;;;;;;;;;;;27.60;93.40;;;;;;5106569;28;19912;-55
2021/05/29 02:38:40;;;;;;;;;;;27.70;93.40;;;;;;5106339;28;20202;-52
2021/05/29 02:41:09;;;;;;;;;;;27.60;93.30;;;;;;5106351;28;19909;-47
2021/05/29 02:43:35;;;;;;;;;;;27.60;93.40;;;;;;5106501;28;19904;-42
2021/05/29 02:46:02;;;;;;;;;;;27.60;93.40;;;;;;5106220;28;19947;-43
2021/05/29 02:48:28;;;;;;;;;;;27.60;93.40;;;;;;5106507;28;20238;-49
2021/05/29 02:50:54;;;;;;;;;;;27.50;93.40;;;;;;5106296;28;19904;-48
2021/05/29 02:53:21;;;;;;;;;;;27.50;93.50;;;;;;5106530;28;19970;-47
2021/05/29 02:55:47;;;;;;;;;;;27.50;93.80;;;;;;5106636;28;19912;-45
2021/05/29 02:58:14;;;;;;;;;;;27.50;93.60;;;;;;5106643;28;19912;-53
2021/05/29 03:00:42;;;;;;;;;;;27.50;93.60;;;;;;5106642;28;19907;-41
2021/05/29 03:03:08;;;;;;;;;;;27.40;93.60;;;;;;5105592;28;19919;-53
2021/05/29 03:05:37;;;;;;;;;;;27.30;93.70;;;;;;5106321;28;19915;-39
2021/05/29 03:08:04;;;;;;;;;;;27.30;93.80;;;;;;5106030;28;19911;-38
2021/05/29 03:10:31;;;;;;;;;;;27.30;93.80;;;;;;5106274;28;19915;-45
2021/05/29 03:12:57;;;;;;;;;;;27.30;93.90;;;;;;5105749;28;19947;-46
2021/05/29 03:15:24;;;;;;;;;;;27.30;93.90;;;;;;5106136;28;19962;-49
2021/05/29 03:17:50;;;;;;;;;;;27.30;93.90;;;;;;5104956;28;19908;-48
2021/05/29 03:20:19;;;;;;;;;;;27.30;93.90;;;;;;5104570;28;19979;-42
2021/05/29 03:22:45;;;;;;;;;;;27.20;94.00;;;;;;5103518;28;19943;-45
2021/05/29 03:25:12;;;;;;;;;;;27.30;94.00;;;;;;5105721;28;20181;-49
2021/05/29 03:27:39;;;;;;;;;;;27.30;94.00;;;;;;5104400;28;19912;-47
2021/05/29 03:30:06;;;;;;;;;;;27.30;94.00;;;;;;5104046;28;19912;-43
2021/05/29 03:32:32;;;;;;;;;;;27.30;93.90;;;;;;5104003;28;19905;-50
2021/05/29 03:34:59;;;;;;;;;;;27.30;93.90;;;;;;5103536;28;20203;-47
2021/05/29 03:37:25;;;;;;;;;;;27.30;93.90;;;;;;5103676;28;19910;-46
2021/05/29 03:39:51;;;;;;;;;;;27.30;93.90;;;;;;5103954;28;19912;-44
2021/05/29 03:42:18;;;;;;;;;;;27.30;93.90;;;;;;5103993;28;19911;-46
2021/05/29 03:44:45;;;;;;;;;;;27.30;94.00;;;;;;5104930;28;19955;-42
2021/05/29 03:47:11;;;;;;;;;;;27.20;94.00;;;;;;5105048;28;19916;-48
2021/05/29 03:49:37;;;;;;;;;;;27.20;94.00;;;;;;5105263;28;19974;-43
2021/05/29 03:52:04;;;;;;;;;;;27.20;94.00;;;;;;5105506;28;20285;-43
2021/05/29 03:54:30;;;;;;;;;;;27.20;94.00;;;;;;5105250;28;19915;-42
2021/05/29 03:56:56;;;;;;;;;;;27.20;93.90;;;;;;5104898;28;19912;-49
2021/05/29 03:59:22;;;;;;;;;;;27.20;93.90;;;;;;5105162;28;19908;-43
2021/05/29 04:01:48;;;;;;;;;;;27.20;93.90;;;;;;5104955;28;19954;-43
2021/05/29 04:04:15;;;;;;;;;;;27.20;93.90;;;;;;5104414;28;20184;-45
2021/05/29 04:06:44;;;;;;;;;;;27.20;93.90;;;;;;5103742;28;19908;-44
2021/05/29 04:09:10;;;;;;;;;;;27.20;94.00;;;;;;5103474;28;19912;-43
2021/05/29 04:11:36;;;;;;;;;;;27.20;94.20;;;;;;5104462;28;20086;-47
2021/05/29 04:14:04;;;;;;;;;;;27.20;93.90;;;;;;5104788;28;19918;-50
2021/05/29 04:16:30;;;;;;;;;;;27.20;93.80;;;;;;5104774;28;19904;-51
2021/05/29 04:18:56;;;;;;;;;;;27.20;93.80;;;;;;5104597;28;19954;-42
2021/05/29 04:21:23;;;;;;;;;;;27.20;93.80;;;;;;5104672;28;20244;-44
2021/05/29 04:23:49;;;;;;;;;;;27.20;93.90;;;;;;5104536;28;19975;-42
2021/05/29 04:26:15;;;;;;;;;;;27.20;93.90;;;;;;5104372;28;19908;-48
2021/05/29 04:28:41;;;;;;;;;;;27.20;93.80;;;;;;5104482;28;19912;-47
2021/05/29 04:31:08;;;;;;;;;;;27.20;93.80;;;;;;5104736;28;20172;-44
2021/05/29 04:33:34;;;;;;;;;;;27.20;93.90;;;;;;5104489;28;19939;-42
2021/05/29 04:36:00;;;;;;;;;;;27.20;93.90;;;;;;5104211;28;19971;-42
2021/05/29 04:38:26;;;;;;;;;;;27.20;94.00;;;;;;5104545;28;19908;-45
2021/05/29 04:40:53;;;;;;;;;;;27.20;93.90;;;;;;5104836;28;19916;-44
2021/05/29 04:43:19;;;;;;;;;;;27.20;93.80;;;;;;5104247;28;20093;-42
2021/05/29 04:45:47;;;;;;;;;;;27.20;93.70;;;;;;5104301;28;19928;-43
2021/05/29 04:48:14;;;;;;;;;;;27.20;93.80;;;;;;5104277;28;19908;-43
2021/05/29 04:53:25;;;;;;;;;;;27.20;93.70;;;;;;5104246;28;19915;-42
2021/05/29 04:55:53;;;;;;;;;;;27.20;93.70;;;;;;5104576;28;19908;-41
2021/05/29 04:58:22;;;;;;;;;;;27.20;93.70;;;;;;5104117;28;19915;-41
2021/05/29 05:00:49;;;;;;;;;;;27.20;93.70;;;;;;5104748;28;19908;-43
2021/05/29 05:03:15;;;;;;;;;;;27.20;93.70;;;;;;5104052;28;20104;-40
2021/05/29 05:05:41;;;;;;;;;;;27.20;93.60;;;;;;5103992;28;19912;-44
2021/05/29 05:08:07;;;;;;;;;;;27.20;93.60;;;;;;5104119;28;19935;-44
2021/05/29 05:10:33;;;;;;;;;;;27.20;93.60;;;;;;5104503;28;19912;-44
2021/05/29 05:13:00;;;;;;;;;;;27.20;93.60;;;;;;5104032;28;19908;-46
2021/05/29 05:15:26;;;;;;;;;;;27.20;93.60;;;;;;5104127;28;19909;-44
2021/05/29 05:17:52;;;;;;;;;;;27.30;93.50;;;;;;5106290;28;20212;-42
2021/05/29 05:20:18;;;;;;;;;;;27.30;93.50;;;;;;5108356;28;19987;-44
2021/05/29 05:22:45;;;;;;;;;;;27.30;93.50;;;;;;5108034;28;19975;-50
2021/05/29 05:25:12;;;;;;;;;;;27.30;93.50;;;;;;5108093;28;19912;-46
2021/05/29 05:27:39;;;;;;;;;;;27.30;93.50;;;;;;5107836;28;19916;-42
2021/05/29 05:30:09;;;;;;;;;;;27.30;93.50;;;;;;5108137;28;19915;-47
2021/05/29 05:32:36;;;;;;;;;;;27.30;93.50;;;;;;5107679;28;19908;-41
2021/05/29 05:35:03;;;;;;;;;;;27.30;93.50;;;;;;5108003;28;20176;-44
2021/05/29 05:37:29;;;;;;;;;;;27.30;93.50;;;;;;5107706;28;19915;-41
2021/05/29 05:39:55;;;;;;;;;;;27.30;93.40;;;;;;5107918;28;19908;-45
2021/05/29 05:42:22;;;;;;;;;;;27.30;93.40;;;;;;5107569;28;19997;-44
2021/05/29 05:44:48;;;;;;;;;;;27.30;93.40;;;;;;5107694;28;20101;-43
2021/05/29 05:47:14;;;;;;;;;;;27.30;93.40;;;;;;5107504;28;19938;-43
2021/05/29 05:49:40;;;;;;;;;;;27.20;93.30;;;;;;5107217;28;19954;-49
2021/05/29 05:52:07;;;;;;;;;;;27.20;93.30;;;;;;5107442;28;19904;-43
2021/05/29 05:54:33;;;;;;;;;;;27.20;93.30;;;;;;5107623;28;19987;-48
2021/05/29 05:56:59;;;;;;;;;;;27.20;93.30;;;;;;5107300;28;19904;-44
2021/05/29 05:59:25;;;;;;;;;;;27.20;93.20;;;;;;5107532;28;19912;-43
2021/05/29 06:01:51;;;;;;;;;;;27.20;93.20;;;;;;5107245;28;19911;-50
2021/05/29 06:04:18;;;;;;;;;;;27.20;93.20;;;;;;5107170;28;19916;-47
2021/05/29 06:06:44;;;;;;;;;;;27.20;93.20;;;;;;5107100;28;19935;-48
2021/05/29 06:09:10;;;;;;;;;;;27.20;93.20;;;;;;5107270;28;19912;-43
2021/05/29 06:11:36;;;;;;;;;;;27.20;93.20;;;;;;5106937;28;19943;-41
2021/05/29 06:19:17;;;;;;;;;;;27.10;93.10;;;;;;5107243;28;20042;-46
2021/05/29 06:21:49;;;;;;;;;;;27.10;93.10;;;;;;5106784;28;19904;-43
2021/05/29 06:24:17;;;;;;;;;;;27.10;93.10;;;;;;5107187;28;19934;-47
2021/05/29 06:26:43;;;;;;;;;;;27.10;93.00;;;;;;5107996;28;19911;-43
2021/05/29 06:29:10;;;;;;;;;;;27.10;93.00;;;;;;5106720;28;19919;-43
2021/05/29 06:31:36;;;;;;;;;;;27.10;93.00;;;;;;5106631;28;19949;-43
2021/05/29 06:34:03;;;;;;;;;;;27.10;93.00;;;;;;5106579;28;19912;-43
2021/05/29 06:36:30;;;;;;;;;;;27.10;93.00;;;;;;5106562;28;19911;-49
2021/05/29 06:38:56;;;;;;;;;;;27.10;93.00;;;;;;5106487;28;19957;-46
2021/05/29 06:41:23;;;;;;;;;;;27.00;93.00;;;;;;5106501;28;19971;-45
2021/05/29 06:43:50;;;;;;;;;;;27.00;93.00;;;;;;5106742;28;20101;-48
2021/05/29 06:46:17;;;;;;;;;;;27.00;93.00;;;;;;5106106;28;20218;-49
2021/05/29 06:48:43;;;;;;;;;;;27.10;93.00;;;;;;5106328;28;19910;-44
2021/05/29 06:51:14;;;;;;;;;;;27.00;92.90;;;;;;5106349;28;19940;-45
2021/05/29 06:53:43;;;;;;;;;;;27.00;92.90;;;;;;5106075;28;19912;-46
2021/05/29 06:58:54;;;;;;;;;;;27.00;92.80;;;;;;5106140;28;20149;-45
2021/05/29 07:01:24;;;;;;;;;;;27.00;92.70;;;;;;5106155;28;19947;-44
2021/05/29 07:03:51;;;;;;;;;;;27.00;92.70;;;;;;5106067;28;19919;-48
2021/05/29 07:06:17;;;;;;;;;;;27.00;92.70;;;;;;5105890;28;19971;-45
2021/05/29 07:08:44;;;;;;;;;;;27.00;92.60;;;;;;5106116;28;20212;-49
2021/05/29 07:11:10;;;;;;;;;;;26.90;92.60;;;;;;5105946;28;19904;-44
2021/05/29 07:13:36;;;;;;;;;;;27.00;92.60;;;;;;5105805;28;19904;-44
2021/05/29 07:16:03;;;;;;;;;;;27.00;92.70;;;;;;5105861;28;20126;-43
2021/05/29 07:18:31;;;;;;;;;;;26.90;92.60;;;;;;5105819;28;20196;-46
2021/05/29 07:21:00;;;;;;;;;;;26.90;92.50;;;;;;5105702;28;20200;-46
2021/05/29 07:23:27;;;;;;;;;;;26.90;92.50;;;;;;5105690;28;19965;-47
2021/05/29 07:25:53;;;;;;;;;;;26.90;92.50;;;;;;5106128;28;19950;-47
2021/05/29 07:28:20;;;;;;;;;;;26.90;92.50;;;;;;5105558;28;19904;-44
2021/05/29 07:30:48;;;;;;;;;;;26.90;92.60;;;;;;5106002;28;20189;-49
2021/05/29 07:33:14;;;;;;;;;;;26.90;92.60;;;;;;5105499;28;19931;-46
2021/05/29 07:35:41;;;;;;;;;;;26.90;92.60;;;;;;5105941;28;20081;-45
2021/05/29 07:38:08;;;;;;;;;;;26.90;92.50;;;;;;5105438;28;19904;-50
2021/05/29 07:40:34;;;;;;;;;;;26.80;92.50;;;;;;5105147;28;19912;-50
2021/05/29 07:43:00;;;;;;;;;;;26.90;92.50;;;;;;5105461;28;19911;-44
2021/05/29 07:45:29;;;;;;;;;;;26.90;92.40;;;;;;5105267;28;20215;-47
2021/05/29 07:47:55;;;;;;;;;;;26.80;92.30;;;;;;5105311;28;19936;-45
2021/05/29 07:50:21;;;;;;;;;;;26.80;92.30;;;;;;5105822;28;19954;-50
2021/05/29 07:52:49;;;;;;;;;;;26.80;92.20;;;;;;5105003;28;19908;-47
2021/05/29 07:55:15;;;;;;;;;;;26.80;92.10;;;;;;5105479;28;20123;-44
2021/05/29 07:57:42;;;;;;;;;;;26.80;92.10;;;;;;5105130;28;19904;-44
2021/05/29 08:00:10;;;;;;;;;;;26.80;92.00;;;;;;5105166;28;19912;-49
2021/05/29 08:02:37;;;;;;;;;;;26.80;91.90;;;;;;5105260;28;19988;-44
2021/05/29 08:05:04;;;;;;;;;;;26.80;91.90;;;;;;5105510;28;19923;-49
2021/05/29 08:07:30;;;;;;;;;;;26.80;91.90;;;;;;5104727;28;19911;-48
2021/05/29 08:09:56;;;;;;;;;;;26.80;91.90;;;;;;5105186;28;19953;-48
2021/05/29 08:12:23;;;;;;;;;;;26.80;91.90;;;;;;5105143;28;20074;-45
2021/05/29 08:14:49;;;;;;;;;;;26.70;91.90;;;;;;5104986;28;20199;-44
2021/05/29 08:17:17;;;;;;;;;;;26.70;91.90;;;;;;5104899;28;19979;-44
2021/05/29 08:19:44;;;;;;;;;;;26.70;92.00;;;;;;5104751;28;19912;-47
2021/05/29 08:22:11;;;;;;;;;;;26.70;92.00;;;;;;5104567;28;19967;-46
2021/05/29 08:24:37;;;;;;;;;;;26.70;92.00;;;;;;5105014;28;19916;-41
2021/05/29 08:27:03;;;;;;;;;;;26.70;92.00;;;;;;5104671;28;20070;-43
2021/05/29 08:29:30;;;;;;;;;;;26.70;92.00;;;;;;5104571;28;20153;-43
2021/05/29 08:31:56;;;;;;;;;;;26.70;92.10;;;;;;5104599;28;19975;-48
2021/05/29 08:34:22;;;;;;;;;;;26.70;92.10;;;;;;5104727;28;19912;-43
2021/05/29 08:36:48;;;;;;;;;;;26.60;92.10;;;;;;5104355;28;19904;-44
2021/05/29 08:39:14;;;;;;;;;;;26.60;92.20;;;;;;5104632;28;19912;-42
2021/05/29 08:41:41;;;;;;;;;;;26.60;92.20;;;;;;5104535;28;19904;-40
2021/05/29 08:44:10;;;;;;;;;;;26.60;92.10;;;;;;5104511;28;20199;-44
2021/05/29 08:46:40;;;;;;;;;;;26.60;92.10;;;;;;5104266;28;19916;-49
2021/05/29 08:49:06;;;;;;;;;;;26.60;92.10;;;;;;5104447;28;19935;-42
2021/05/29 08:51:33;;;;;;;;;;;26.60;92.10;;;;;;5106132;28;19932;-42
2021/05/29 08:54:00;;;;;;;;;;;26.60;92.10;;;;;;5108794;28;19912;-44
2021/05/29 08:56:28;;;;;;;;;;;26.60;92.10;;;;;;5108589;28;19969;-48
2021/05/29 08:58:54;;;;;;;;;;;26.60;92.10;;;;;;5108345;28;19953;-43
2021/05/29 09:01:22;;;;;;;;;;;26.60;92.10;;;;;;5108435;28;19972;-42
2021/05/29 09:03:48;;;;;;;;;;;26.60;92.20;;;;;;5108340;28;19940;-44
2021/05/29 09:06:16;;;;;;;;;;;26.60;92.20;;;;;;5108157;28;19908;-44
2021/05/29 09:08:49;;;;;;;;;;;26.60;92.10;;;;;;5108328;28;19905;-46
2021/05/29 09:11:35;;;;;;;;;;;26.60;92.20;;;;;;5108251;28;19912;-42
2021/05/29 09:14:21;;;;;;;;;;;26.60;92.10;;;;;;5108239;28;19912;-45
2021/05/29 09:17:01;;;;;;;;;;;26.60;92.30;;;;;;5107956;28;19986;-41
2021/05/29 09:19:27;;;;;;;;;;;26.60;92.20;;;;;;5108251;28;20088;-46
2021/05/29 09:21:54;;;;;;;;;;;26.60;92.20;;;;;;5108064;28;20081;-42
2021/05/29 09:24:20;;;;;;;;;;;26.50;92.20;;;;;;5107960;28;19912;-43
2021/05/29 09:26:47;;;;;;;;;;;26.60;92.30;;;;;;5108078;28;20163;-42
2021/05/29 09:29:18;;;;;;;;;;;26.60;92.30;;;;;;5108146;28;19944;-44
2021/05/29 09:32:10;;;;;;;;;;;26.60;92.30;;;;;;5107770;28;19904;-43
2021/05/29 09:34:45;;;;;;;;;;;26.60;92.20;;;;;;5106067;28;20150;-46
2021/05/29 09:37:15;;;;;;;;;;;26.60;92.10;;;;;;5108070;28;19900;-43
2021/05/29 09:39:44;;;;;;;;;;;26.60;92.10;;;;;;5107980;28;19912;-45
2021/05/29 09:42:10;;;;;;;;;;;26.60;92.10;;;;;;5107571;28;20220;-48
2021/05/29 09:44:37;;;;;;;;;;;26.60;92.00;;;;;;5107748;28;19961;-43
2021/05/29 09:47:04;;;;;;;;;;;26.60;92.00;;;;;;5107474;28;19916;-42
2021/05/29 09:49:53;;;;;;;;;;;26.60;92.00;;;;;;5107828;28;19912;-46
2021/05/29 09:52:36;;;;;;;;;;;26.60;92.10;;;;;;5107452;28;19911;-44
2021/05/29 09:55:05;;;;;;;;;;;26.60;92.10;;;;;;5107754;28;19908;-46
2021/05/29 09:57:48;;;;;;;;;;;26.50;92.10;;;;;;5107701;28;20139;-47
2021/05/29 10:00:14;;;;;;;;;;;26.50;92.20;;;;;;5107803;28;19916;-44
2021/05/29 10:02:56;;;;;;;;;;;26.50;92.30;;;;;;5106869;28;19915;-45
2021/05/29 10:05:30;;;;;;;;;;;26.50;92.60;;;;;;5107419;28;19912;-43
2021/05/29 10:07:57;;;;;;;;;;;26.50;92.40;;;;;;5107214;28;19908;-45
2021/05/29 10:10:23;;;;;;;;;;;26.50;92.40;;;;;;5107531;28;19916;-45
2021/05/29 10:12:49;;;;;;;;;;;26.50;92.40;;;;;;5107029;28;19915;-46
2021/05/29 10:15:18;;;;;;;;;;;26.50;92.40;;;;;;5107490;28;19908;-43
2021/05/29 10:17:48;;;;;;;;;;;26.40;92.30;;;;;;5107012;28;19908;-45
2021/05/29 10:20:15;;;;;;;;;;;26.50;92.30;;;;;;5107332;28;20101;-44
2021/05/29 10:22:43;;;;;;;;;;;26.50;92.30;;;;;;5106874;28;19936;-42
2021/05/29 10:25:11;;;;;;;;;;;26.50;92.30;;;;;;5107077;28;19950;-44
2021/05/29 10:27:38;;;;;;;;;;;26.50;92.30;;;;;;5106870;28;19992;-42
2021/05/29 10:30:05;;;;;;;;;;;26.50;92.30;;;;;;5107194;28;19908;-45
2021/05/29 10:32:31;;;;;;;;;;;26.50;92.30;;;;;;5106767;28;19908;-45
2021/05/29 10:35:06;;;;;;;;;;;26.50;92.30;;;;;;5106897;28;19912;-47
2021/05/29 10:37:35;;;;;;;;;;;26.50;92.30;;;;;;5106640;28;20137;-46
2021/05/29 10:40:14;;;;;;;;;;;26.50;92.30;;;;;;5106722;28;19908;-43
2021/05/29 10:42:41;;;;;;;;;;;26.50;92.30;;;;;;5106581;28;19912;-44
2021/05/29 10:45:21;;;;;;;;;;;26.50;92.30;;;;;;5106547;28;19952;-44
2021/05/29 10:47:59;;;;;;;;;;;26.50;92.30;;;;;;5106397;28;20197;-42
2021/05/29 10:53:48;;;;;;;;;;;26.50;92.30;;;;;;5106365;28;20135;-45
2021/05/29 10:56:17;;;;;;;;;;;26.50;92.40;;;;;;5106426;28;19969;-47
2021/05/29 10:58:59;;;;;;;;;;;26.50;92.40;;;;;;5106126;28;19904;-45
2021/05/29 11:01:48;;;;;;;;;;;26.50;92.40;;;;;;5106142;28;20188;-43
2021/05/29 11:06:43;;;;;;;;;;;26.50;92.50;;;;;;5106106;28;19975;-42
2021/05/29 11:09:10;;;;;;;;;;;26.50;92.60;;;;;;5106102;28;19912;-52
2021/05/29 11:11:57;;;;;;;;;;;26.50;92.60;;;;;;5105786;28;19904;-45
2021/05/29 11:14:24;;;;;;;;;;;26.50;92.60;;;;;;5104901;28;19912;-47
2021/05/29 11:16:51;;;;;;;;;;;26.50;92.70;;;;;;5105609;28;20157;-47
2021/05/29 11:19:18;;;;;;;;;;;26.50;92.90;;;;;;5105865;28;20092;-46
2021/05/29 11:22:04;;;;;;;;;;;26.50;93.10;;;;;;5105768;28;20100;-48
2021/05/29 11:24:32;;;;;;;;;;;26.50;93.00;;;;;;5105796;28;20074;-46
2021/05/29 11:26:58;;;;;;;;;;;26.50;93.10;;;;;;5105530;28;19973;-43
2021/05/29 11:29:24;;;;;;;;;;;26.50;93.10;;;;;;5105610;28;19919;-43
2021/05/29 11:31:52;;;;;;;;;;;26.50;93.10;;;;;;5105531;28;20096;-47
2021/05/29 11:34:19;;;;;;;;;;;26.50;93.20;;;;;;5105586;28;20104;-44
2021/05/29 11:36:46;;;;;;;;;;;26.50;93.30;;;;;;5105273;28;19911;-58
2021/05/29 11:39:14;;;;;;;;;;;26.50;93.40;;;;;;5105720;28;19954;-46
2021/05/29 11:41:41;;;;;;;;;;;26.50;93.40;;;;;;5105304;28;20166;-45
2021/05/29 11:44:21;;;;;;;;;;;26.50;93.50;;;;;;5105324;28;19943;-50
2021/05/29 11:46:47;;;;;;;;;;;26.50;93.50;;;;;;5105193;28;19923;-45
2021/05/29 11:49:14;;;;;;;;;;;26.50;93.60;;;;;;5105377;28;19912;-47
2021/05/29 11:51:44;;;;;;;;;;;26.50;93.70;;;;;;5104909;28;19975;-42
2021/05/29 11:54:22;;;;;;;;;;;26.50;93.70;;;;;;5105174;28;19908;-49
2021/05/29 11:56:50;;;;;;;;;;;26.50;93.70;;;;;;5104952;28;19943;-41
2021/05/29 11:59:17;;;;;;;;;;;26.40;93.70;;;;;;5105151;28;19951;-43
2021/05/29 12:01:46;;;;;;;;;;;26.50;93.70;;;;;;5104952;28;19908;-45
2021/05/29 12:04:15;;;;;;;;;;;26.40;93.70;;;;;;5104832;28;19979;-45
2021/05/29 12:06:42;;;;;;;;;;;26.50;93.70;;;;;;5104937;28;19908;-52
2021/05/29 12:09:18;;;;;;;;;;;26.50;93.70;;;;;;5104955;28;19908;-47
2021/05/29 12:11:50;;;;;;;;;;;26.50;93.70;;;;;;5104661;28;19915;-43
2021/05/29 12:14:23;;;;;;;;;;;26.50;93.60;;;;;;5104893;28;19908;-41
2021/05/29 12:16:56;;;;;;;;;;;26.50;93.60;;;;;;5104661;28;20215;-43
2021/05/29 12:19:29;;;;;;;;;;;26.50;93.60;;;;;;5105011;28;20240;-48
2021/05/29 12:21:56;;;;;;;;;;;26.50;93.60;;;;;;5104765;28;19908;-45
2021/05/29 12:24:23;;;;;;;;;;;26.50;93.60;;;;;;5104582;28;19908;-47
2021/05/29 12:26:50;;;;;;;;;;;26.60;93.60;;;;;;5104333;28;19908;-44
2021/05/29 12:29:25;;;;;;;;;;;26.60;93.60;;;;;;5104772;28;19976;-47
2021/05/29 12:31:51;;;;;;;;;;;26.60;93.60;;;;;;5104470;28;20183;-46
2021/05/29 12:34:18;;;;;;;;;;;26.60;93.50;;;;;;5104884;28;19908;-43
2021/05/29 12:36:54;;;;;;;;;;;26.60;93.50;;;;;;5104395;28;20101;-53
2021/05/29 12:39:20;;;;;;;;;;;26.70;93.50;;;;;;5104561;28;19912;-47
2021/05/29 12:41:47;;;;;;;;;;;26.70;93.40;;;;;;5104422;28;19908;-53
2021/05/29 12:44:13;;;;;;;;;;;26.70;93.40;;;;;;5104477;28;19915;-43
2021/05/29 12:46:42;;;;;;;;;;;26.70;93.30;;;;;;5103559;28;20973;-42
2021/05/29 12:49:13;;;;;;;;;;;26.80;93.30;;;;;;5104515;28;19949;-41
2021/05/29 12:51:39;;;;;;;;;;;26.80;93.50;;;;;;5104291;28;19939;-44
2021/05/29 12:54:05;;;;;;;;;;;26.80;93.30;;;;;;5104679;28;19943;-43
2021/05/29 12:56:32;;;;;;;;;;;26.80;93.20;;;;;;5104362;28;19958;-45
2021/05/29 12:58:58;;;;;;;;;;;26.80;93.20;;;;;;5104287;28;20084;-47
2021/05/29 13:12:28;;;;;;;;;;;26.90;93.10;;;;;;5104253;28;19916;-46
2021/05/29 13:14:54;;;;;;;;;;;26.90;93.10;;;;;;5104340;28;19904;-52
2021/05/29 13:17:29;;;;;;;;;;;26.90;93.10;;;;;;5104068;28;19957;-44
2021/05/29 13:20:00;;;;;;;;;;;26.90;93.00;;;;;;5103865;28;20193;-46
2021/05/29 13:22:31;;;;;;;;;;;26.90;93.00;;;;;;5104054;28;19908;-53
2021/05/29 13:25:00;;;;;;;;;;;26.90;93.00;;;;;;5104354;28;19919;-51
2021/05/29 13:27:26;;;;;;;;;;;26.90;92.90;;;;;;5104055;28;19915;-51
2021/05/29 13:29:56;;;;;;;;;;;26.90;92.80;;;;;;5104343;28;19908;-41
2021/05/29 13:32:23;;;;;;;;;;;27.00;92.70;;;;;;5104046;28;19953;-47
2021/05/29 13:34:50;;;;;;;;;;;27.00;92.80;;;;;;5104038;28;19908;-44
2021/05/29 13:37:17;;;;;;;;;;;27.00;92.70;;;;;;5104079;28;20271;-44
2021/05/29 13:39:43;;;;;;;;;;;27.00;92.60;;;;;;5107898;28;20182;-44
2021/05/29 13:42:09;;;;;;;;;;;27.00;92.60;;;;;;5107591;28;19979;-41
2021/05/29 13:44:36;;;;;;;;;;;27.10;92.60;;;;;;5107852;28;20280;-41
2021/05/29 13:47:03;;;;;;;;;;;27.00;92.60;;;;;;5107432;28;19995;-45
2021/05/29 13:49:30;;;;;;;;;;;27.10;92.60;;;;;;5107610;28;20014;-44
2021/05/29 13:51:56;;;;;;;;;;;27.10;92.60;;;;;;5107516;28;20166;-41
2021/05/29 13:54:23;;;;;;;;;;;27.20;92.50;;;;;;5107597;28;19950;-42
2021/05/29 13:56:49;;;;;;;;;;;27.20;92.60;;;;;;5107558;28;19908;-42
2021/05/29 13:59:15;;;;;;;;;;;27.20;92.50;;;;;;5107455;28;20097;-43
2021/05/29 14:01:42;;;;;;;;;;;27.30;92.50;;;;;;5107306;28;19907;-44
2021/05/29 14:04:08;;;;;;;;;;;27.30;92.50;;;;;;5107214;28;19908;-47
2021/05/29 14:06:35;;;;;;;;;;;27.30;92.40;;;;;;5107194;28;19912;-45
2021/05/29 14:09:02;;;;;;;;;;;27.40;92.40;;;;;;5107207;28;19909;-47
2021/05/29 14:11:31;;;;;;;;;;;27.40;92.30;;;;;;5107062;28;19908;-53
2021/05/29 14:13:58;;;;;;;;;;;27.40;92.30;;;;;;5106985;28;19909;-40
2021/05/29 14:16:27;;;;;;;;;;;27.40;92.20;;;;;;5100335;28;20257;-44
2021/05/29 14:18:53;;;;;;;;;;;27.50;92.30;;;;;;5096359;28;19919;-43
2021/05/29 14:21:20;;;;;;;;;;;27.50;92.30;;;;;;5095823;28;19911;-42
2021/05/29 14:23:46;;;;;;;;;;;27.50;92.10;;;;;;5097481;28;19946;-45
2021/05/29 14:26:13;;;;;;;;;;;27.50;92.20;;;;;;5095915;28;20184;-46
2021/05/29 14:28:39;;;;;;;;;;;27.60;92.30;;;;;;5095690;28;20112;-41
2021/05/29 14:31:06;;;;;;;;;;;27.60;92.20;;;;;;5097262;28;19936;-43
2021/05/29 14:33:36;;;;;;;;;;;27.70;92.10;;;;;;5095837;28;19904;-47
2021/05/29 14:36:03;;;;;;;;;;;27.70;92.10;;;;;;5103506;28;20192;-48
2021/05/29 14:38:30;;;;;;;;;;;27.70;92.30;;;;;;5106607;28;19904;-44
2021/05/29 14:40:56;;;;;;;;;;;27.70;92.20;;;;;;5106793;28;19904;-46
2021/05/29 14:43:22;;;;;;;;;;;27.80;92.20;;;;;;5106453;28;19912;-46
2021/05/29 14:45:48;;;;;;;;;;;27.80;92.20;;;;;;5106510;28;19966;-48
2021/05/29 14:48:18;;;;;;;;;;;27.80;92.40;;;;;;5106318;28;20101;-52